Time,TemperatureF,DewpointF,PressureIn,WindDirection,WindDirectionDegrees,WindSpeedMPH,WindSpeedGustMPH,Humidity,HourlyPrecipIn,Conditions,Clouds,dailyrainin,SoftwareType,DateUTC
2013-01-04 00:03:00,12.2,-24.3,28.91,NNE,14,2.7,4.9,17,0.00,,,0.00,VWS V13.01,2013-01-04 06:03:00,
2013-01-04 00:08:00,12.4,-24.1,28.91,NW,324,3.1,5.8,17,0.00,,,0.00,VWS V13.01,2013-01-04 06:08:00,
2013-01-04 00:13:00,12.7,-23.8,28.91,NNW,340,0.0,8.3,17,0.00,,,0.00,VWS V13.01,2013-01-04 06:13:00,
2013-01-04 00:18:00,12.7,-23.8,28.91,North,353,4.9,7.2,17,0.00,,,0.00,VWS V13.01,2013-01-04 06:18:00,
2013-01-04 00:23:00,12.6,-24.0,28.88,NW,313,2.7,4.9,17,0.00,,,0.00,VWS V13.01,2013-01-04 06:23:00,
2013-01-04 00:28:00,12.6,-24.0,28.88,NW,317,5.4,5.4,17,0.00,,,0.00,VWS V13.01,2013-01-04 06:28:00,
2013-01-04 00:33:00,12.6,-24.0,28.88,NNE,15,3.6,7.2,17,0.00,,,0.00,VWS V13.01,2013-01-04 06:33:00,
2013-01-04 00:38:00,12.4,-24.1,28.88,NNW,341,5.4,5.4,17,0.00,,,0.00,VWS V13.01,2013-01-04 06:38:00,
2013-01-04 00:43:00,12.7,-23.8,28.88,NNW,332,3.1,7.6,17,0.00,,,0.00,VWS V13.01,2013-01-04 06:43:00,
2013-01-04 00:48:00,13.1,-23.5,28.88,NW,322,5.4,7.6,17,0.00,,,0.00,VWS V13.01,2013-01-04 06:48:00,
2013-01-04 00:53:00,12.7,-23.8,28.88,NNW,330,2.7,2.7,17,0.00,,,0.00,VWS V13.01,2013-01-04 06:53:00,
2013-01-04 00:58:00,13.3,-23.4,28.88,NNE,21,5.8,6.3,17,0.00,,,0.00,VWS V13.01,2013-01-04 06:58:00,
2013-01-04 01:03:00,13.1,-23.5,28.88,North,9,8.7,8.7,17,0.00,,,0.00,VWS V13.01,2013-01-04 07:03:00,
2013-01-04 01:08:00,12.9,-23.7,28.88,NNW,327,4.0,5.4,17,0.00,,,0.00,VWS V13.01,2013-01-04 07:08:00,
2013-01-04 01:13:00,12.9,-23.7,28.88,ENE,58,3.1,4.0,17,0.00,,,0.00,VWS V13.01,2013-01-04 07:13:00,
2013-01-04 01:18:00,12.9,-23.7,28.88,North,4,2.2,4.0,17,0.00,,,0.00,VWS V13.01,2013-01-04 07:18:00,
2013-01-04 01:23:00,12.9,-23.7,28.88,NNW,339,4.9,8.1,17,0.00,,,0.00,VWS V13.01,2013-01-04 07:23:00,
2013-01-04 01:28:00,13.3,-23.4,28.88,NNE,19,0.0,3.1,17,0.00,,,0.00,VWS V13.01,2013-01-04 07:28:00,
2013-01-04 01:33:00,12.9,-23.7,28.88,North,0,5.8,5.8,17,0.00,,,0.00,VWS V13.01,2013-01-04 07:33:00,
2013-01-04 01:38:00,13.1,-23.5,28.88,North,0,2.7,5.8,17,0.00,,,0.00,VWS V13.01,2013-01-04 07:38:00,
2013-01-04 01:43:00,13.6,-23.1,28.88,NW,325,4.0,4.0,17,0.00,,,0.00,VWS V13.01,2013-01-04 07:43:00,
2013-01-04 01:48:00,13.3,-23.4,28.88,WNW,299,2.7,2.7,17,0.00,,,0.00,VWS V13.01,2013-01-04 07:48:00,
2013-01-04 01:53:00,13.3,-23.4,28.88,NE,53,6.3,6.3,17,0.00,,,0.00,VWS V13.01,2013-01-04 07:53:00,
2013-01-04 01:58:00,13.5,-23.2,28.88,NNE,31,2.7,3.6,17,0.00,,,0.00,VWS V13.01,2013-01-04 07:58:00,
2013-01-04 02:03:00,13.5,-23.2,28.88,ESE,105,3.1,4.9,17,0.00,,,0.00,VWS V13.01,2013-01-04 08:03:00,
2013-01-04 02:08:00,13.5,-23.2,28.88,NW,307,2.7,6.3,17,0.00,,,0.00,VWS V13.01,2013-01-04 08:08:00,
2013-01-04 02:13:00,13.5,-23.2,28.88,NW,310,0.0,2.2,17,0.00,,,0.00,VWS V13.01,2013-01-04 08:13:00,
2013-01-04 02:18:00,13.8,-22.9,28.88,North,357,4.5,4.5,17,0.00,,,0.00,VWS V13.01,2013-01-04 08:18:00,
2013-01-04 02:23:00,13.8,-12.6,28.88,NNW,331,4.0,4.0,29,0.00,,,0.00,VWS V13.01,2013-01-04 08:23:00,
2013-01-04 02:28:00,14.0,-12.4,28.88,NNE,28,3.6,3.6,29,0.00,,,0.00,VWS V13.01,2013-01-04 08:28:00,
2013-01-04 02:33:00,13.8,-12.6,28.88,North,353,2.7,2.7,29,0.00,,,0.00,VWS V13.01,2013-01-04 08:33:00,
2013-01-04 02:38:00,13.8,-12.6,28.88,WNW,294,2.2,7.2,29,0.00,,,0.00,VWS V13.01,2013-01-04 08:38:00,
2013-01-04 02:43:00,13.8,-12.6,28.88,NNE,29,2.2,6.3,29,0.00,,,0.00,VWS V13.01,2013-01-04 08:43:00,
2013-01-04 02:48:00,13.6,-12.7,28.88,NNW,330,0.0,0.0,29,0.00,,,0.00,VWS V13.01,2013-01-04 08:48:00,
2013-01-04 02:53:00,13.3,-13.0,28.88,NE,41,3.6,3.6,29,0.00,,,0.00,VWS V13.01,2013-01-04 08:53:00,
2013-01-04 02:58:00,13.8,-12.6,28.88,ENE,75,0.0,2.7,29,0.00,,,0.00,VWS V13.01,2013-01-04 08:58:00,
2013-01-04 03:03:00,13.8,-12.6,28.88,NW,326,4.0,8.1,29,0.00,,,0.00,VWS V13.01,2013-01-04 09:03:00,
2013-01-04 03:08:00,13.6,-12.7,28.85,NNE,26,3.1,3.1,29,0.00,,,0.00,VWS V13.01,2013-01-04 09:08:00,
2013-01-04 03:13:00,13.8,-12.6,28.85,NNW,335,4.5,6.3,29,0.00,,,0.00,VWS V13.01,2013-01-04 09:13:00,
2013-01-04 03:18:00,13.6,-12.7,28.85,NNW,333,2.7,4.9,29,0.00,,,0.00,VWS V13.01,2013-01-04 09:18:00,
2013-01-04 03:23:00,13.5,-12.9,28.85,North,350,3.6,3.6,29,0.00,,,0.00,VWS V13.01,2013-01-04 09:23:00,
2013-01-04 03:28:00,13.6,-12.7,28.85,NNW,331,3.6,3.6,29,0.00,,,0.00,VWS V13.01,2013-01-04 09:28:00,
2013-01-04 03:33:00,13.5,-12.9,28.85,NNE,31,0.0,0.0,29,0.00,,,0.00,VWS V13.01,2013-01-04 09:33:00,
2013-01-04 03:38:00,12.9,-13.3,28.85,NNW,342,0.0,0.0,29,0.00,,,0.00,VWS V13.01,2013-01-04 09:38:00,
2013-01-04 03:43:00,12.6,-13.6,28.85,NNE,16,0.0,0.0,29,0.00,,,0.00,VWS V13.01,2013-01-04 09:43:00,
2013-01-04 03:48:00,12.6,-13.6,28.85,NW,322,2.2,3.1,29,0.00,,,0.00,VWS V13.01,2013-01-04 09:48:00,
2013-01-04 03:53:00,12.7,-13.5,28.85,NNW,338,2.2,2.7,29,0.00,,,0.00,VWS V13.01,2013-01-04 09:53:00,
2013-01-04 03:58:00,12.9,-13.3,28.85,NNW,346,0.0,0.0,29,0.00,,,0.00,VWS V13.01,2013-01-04 09:58:00,
2013-01-04 04:03:00,12.9,-13.3,28.85,NNW,343,0.0,4.0,29,0.00,,,0.00,VWS V13.01,2013-01-04 10:03:00,
2013-01-04 04:08:00,12.9,-13.3,28.85,NNW,339,0.0,0.0,29,0.00,,,0.00,VWS V13.01,2013-01-04 10:08:00,
2013-01-04 04:13:00,12.9,-13.3,28.85,NNW,339,0.0,0.0,29,0.00,,,0.00,VWS V13.01,2013-01-04 10:13:00,
2013-01-04 04:18:00,12.7,-13.5,28.85,NNW,330,0.0,0.0,29,0.00,,,0.00,VWS V13.01,2013-01-04 10:18:00,
2013-01-04 04:23:00,12.6,-13.6,28.85,NW,326,0.0,0.0,29,0.00,,,0.00,VWS V13.01,2013-01-04 10:23:00,
2013-01-04 04:28:00,12.6,-13.6,28.85,NE,48,0.0,0.0,29,0.00,,,0.00,VWS V13.01,2013-01-04 10:28:00,
2013-01-04 04:33:00,11.7,-14.4,28.85,NE,39,0.0,0.0,29,0.00,,,0.00,VWS V13.01,2013-01-04 10:33:00,
2013-01-04 04:38:00,11.8,-14.3,28.85,NNW,341,0.0,0.0,29,0.00,,,0.00,VWS V13.01,2013-01-04 10:38:00,
2013-01-04 04:43:00,12.2,-14.0,28.85,North,353,2.7,3.1,29,0.00,,,0.00,VWS V13.01,2013-01-04 10:43:00,
2013-01-04 04:48:00,12.4,-13.8,28.85,NNW,342,0.0,0.0,29,0.00,,,0.00,VWS V13.01,2013-01-04 10:48:00,
2013-01-04 04:53:00,12.2,-14.0,28.85,NNW,338,0.0,0.0,29,0.00,,,0.00,VWS V13.01,2013-01-04 10:53:00,
2013-01-04 04:58:00,12.2,-14.0,28.85,North,353,0.0,2.2,29,0.00,,,0.00,VWS V13.01,2013-01-04 10:58:00,
2013-01-04 05:03:00,12.4,-13.8,28.85,North,11,3.6,3.6,29,0.00,,,0.00,VWS V13.01,2013-01-04 11:03:00,
2013-01-04 05:08:00,12.6,-13.6,28.85,North,357,0.0,0.0,29,0.00,,,0.00,VWS V13.01,2013-01-04 11:08:00,
2013-01-04 05:13:00,12.0,-14.1,28.85,North,357,0.0,0.0,29,0.00,,,0.00,VWS V13.01,2013-01-04 11:13:00,
2013-01-04 05:18:00,11.8,-14.3,28.85,North,5,0.0,0.0,29,0.00,,,0.00,VWS V13.01,2013-01-04 11:18:00,
2013-01-04 05:23:00,11.1,-14.9,28.85,North,5,0.0,0.0,29,0.00,,,0.00,VWS V13.01,2013-01-04 11:23:00,
2013-01-04 05:28:00,10.2,-15.7,28.85,North,5,0.0,0.0,29,0.00,,,0.00,VWS V13.01,2013-01-04 11:28:00,
2013-01-04 05:33:00,9.9,-16.0,28.85,North,5,0.0,0.0,29,0.00,,,0.00,VWS V13.01,2013-01-04 11:33:00,
2013-01-04 05:38:00,10.0,-15.9,28.88,North,5,0.0,0.0,29,0.00,,,0.00,VWS V13.01,2013-01-04 11:38:00,
2013-01-04 05:43:00,10.2,-15.7,28.88,North,5,0.0,0.0,29,0.00,,,0.00,VWS V13.01,2013-01-04 11:43:00,
2013-01-04 05:48:00,10.4,-15.6,28.88,North,5,0.0,0.0,29,0.00,,,0.00,VWS V13.01,2013-01-04 11:48:00,
2013-01-04 05:53:00,10.2,-15.7,28.88,North,5,0.0,0.0,29,0.00,,,0.00,VWS V13.01,2013-01-04 11:53:00,
2013-01-04 05:58:00,10.0,-15.9,28.88,North,5,0.0,0.0,29,0.00,,,0.00,VWS V13.01,2013-01-04 11:58:00,
2013-01-04 06:03:00,10.2,-15.7,28.88,North,5,0.0,0.0,29,0.00,,,0.00,VWS V13.01,2013-01-04 12:03:00,
2013-01-04 06:08:00,10.0,-15.9,28.88,North,5,0.0,0.0,29,0.00,,,0.00,VWS V13.01,2013-01-04 12:08:00,
2013-01-04 06:13:00,10.0,-15.9,28.88,North,5,0.0,0.0,29,0.00,,,0.00,VWS V13.01,2013-01-04 12:13:00,
2013-01-04 06:18:00,10.4,-15.6,28.88,North,5,0.0,0.0,29,0.00,,,0.00,VWS V13.01,2013-01-04 12:18:00,
2013-01-04 06:23:00,10.4,-15.6,28.88,North,5,0.0,0.0,29,0.00,,,0.00,VWS V13.01,2013-01-04 12:23:00,
2013-01-04 06:28:00,9.7,-16.2,28.88,North,5,0.0,0.0,29,0.00,,,0.00,VWS V13.01,2013-01-04 12:28:00,
2013-01-04 06:33:00,9.7,-16.2,28.88,North,5,0.0,0.0,29,0.00,,,0.00,VWS V13.01,2013-01-04 12:33:00,
2013-01-04 06:38:00,9.5,-16.3,28.88,North,5,0.0,0.0,29,0.00,,,0.00,VWS V13.01,2013-01-04 12:38:00,
2013-01-04 06:43:00,9.7,-16.2,28.88,North,5,0.0,0.0,29,0.00,,,0.00,VWS V13.01,2013-01-04 12:43:00,
2013-01-04 06:48:00,10.4,-15.6,28.88,North,5,0.0,0.0,29,0.00,,,0.00,VWS V13.01,2013-01-04 12:48:00,
2013-01-04 06:53:00,10.8,-15.2,28.88,North,5,0.0,0.0,29,0.00,,,0.00,VWS V13.01,2013-01-04 12:53:00,
2013-01-04 06:58:00,10.2,-15.7,28.88,North,5,0.0,0.0,29,0.00,,,0.00,VWS V13.01,2013-01-04 12:58:00,
2013-01-04 07:03:00,10.0,-15.9,28.88,North,5,0.0,0.0,29,0.00,,,0.00,VWS V13.01,2013-01-04 13:03:00,
2013-01-04 07:08:00,10.2,-15.7,28.88,North,5,0.0,0.0,29,0.00,,,0.00,VWS V13.01,2013-01-04 13:08:00,
2013-01-04 07:13:00,9.9,-16.0,28.88,North,5,0.0,0.0,29,0.00,,,0.00,VWS V13.01,2013-01-04 13:13:00,
2013-01-04 07:18:00,10.6,-15.4,28.88,NNE,30,0.0,0.0,29,0.00,,,0.00,VWS V13.01,2013-01-04 13:18:00,
2013-01-04 07:23:00,11.5,-14.6,28.88,NE,44,0.0,0.0,29,0.00,,,0.00,VWS V13.01,2013-01-04 13:23:00,
2013-01-04 07:28:00,11.7,-14.4,28.88,NNE,33,0.0,0.0,29,0.00,,,0.00,VWS V13.01,2013-01-04 13:28:00,
2013-01-04 07:33:00,11.5,-14.6,28.88,NNE,33,0.0,0.0,29,0.00,,,0.00,VWS V13.01,2013-01-04 13:33:00,
2013-01-04 07:38:00,11.5,-14.6,28.88,NE,41,0.0,0.0,29,0.00,,,0.00,VWS V13.01,2013-01-04 13:38:00,
2013-01-04 07:43:00,11.7,-14.4,28.88,NNE,26,0.0,0.0,29,0.00,,,0.00,VWS V13.01,2013-01-04 13:43:00,
2013-01-04 07:48:00,12.2,-14.0,28.88,ESE,103,0.0,0.0,29,0.00,,,0.00,VWS V13.01,2013-01-04 13:48:00,
2013-01-04 07:53:00,12.4,-13.8,28.88,ESE,108,0.0,0.0,29,0.00,,,0.00,VWS V13.01,2013-01-04 13:53:00,
2013-01-04 07:58:00,12.7,-13.5,28.88,East,100,0.0,0.0,29,0.00,,,0.00,VWS V13.01,2013-01-04 13:58:00,
2013-01-04 08:03:00,12.7,-13.5,28.88,East,94,0.0,0.0,29,0.00,,,0.00,VWS V13.01,2013-01-04 14:03:00,
2013-01-04 08:08:00,13.1,-13.2,28.88,East,94,0.0,0.0,29,0.00,,,0.00,VWS V13.01,2013-01-04 14:08:00,
2013-01-04 08:13:00,14.2,-14.4,28.88,East,94,0.0,0.0,26,0.00,,,0.00,VWS V13.01,2013-01-04 14:13:00,
2013-01-04 08:18:00,16.5,-10.9,28.88,East,94,0.0,0.0,28,0.00,,,0.00,VWS V13.01,2013-01-04 14:18:00,
2013-01-04 08:23:00,18.7,-7.6,28.88,East,94,0.0,0.0,30,0.00,,,0.00,VWS V13.01,2013-01-04 14:23:00,
2013-01-04 08:29:00,20.5,-6.0,28.88,East,94,0.0,0.0,30,0.00,,,0.00,VWS V13.01,2013-01-04 14:29:00,
2013-01-04 08:34:00,21.2,-7.6,28.88,North,0,0.0,0.0,27,0.00,,,0.00,VWS V13.01,2013-01-04 14:34:00,
2013-01-04 08:39:00,22.5,-2.3,28.88,North,0,0.0,0.0,33,0.00,,,0.00,VWS V13.01,2013-01-04 14:39:00,
2013-01-04 08:44:00,23.0,-6.0,28.88,NNE,20,0.0,0.0,27,0.00,,,0.00,VWS V13.01,2013-01-04 14:44:00,
2013-01-04 08:49:00,24.4,-8.9,28.88,NNE,18,0.0,0.0,22,0.00,,,0.00,VWS V13.01,2013-01-04 14:49:00,
2013-01-04 08:54:00,25.2,-14.7,28.88,NNE,12,0.0,0.0,16,0.00,,,0.00,VWS V13.01,2013-01-04 14:54:00,
2013-01-04 08:59:00,26.1,-14.0,28.88,NNE,28,0.0,0.0,16,0.00,,,0.00,VWS V13.01,2013-01-04 14:59:00,
2013-01-04 09:04:00,27.9,-12.5,28.88,North,357,0.0,2.7,16,0.00,,,0.00,VWS V13.01,2013-01-04 15:04:00,
2013-01-04 09:09:00,27.0,-13.2,28.91,ENE,58,0.0,0.0,16,0.00,,,0.00,VWS V13.01,2013-01-04 15:09:00,
2013-01-04 09:14:00,27.0,-13.2,28.91,NE,55,0.0,3.1,16,0.00,,,0.00,VWS V13.01,2013-01-04 15:14:00,
2013-01-04 09:19:00,27.9,-12.5,28.91,NE,45,0.0,0.0,16,0.00,,,0.00,VWS V13.01,2013-01-04 15:19:00,
2013-01-04 09:24:00,29.1,-12.8,28.91,NE,42,0.0,0.0,15,0.00,,,0.00,VWS V13.01,2013-01-04 15:24:00,
2013-01-04 09:29:00,29.1,-12.8,28.91,NNW,342,4.0,4.0,15,0.00,,,0.00,VWS V13.01,2013-01-04 15:29:00,
2013-01-04 09:34:00,28.9,-12.9,28.91,SE,129,0.0,0.0,15,0.00,,,0.00,VWS V13.01,2013-01-04 15:34:00,
2013-01-04 09:39:00,30.9,-11.3,28.91,NE,52,0.0,0.0,15,0.00,,,0.00,VWS V13.01,2013-01-04 15:39:00,
2013-01-04 09:44:00,29.3,-12.6,28.91,ESE,103,0.0,0.0,15,0.00,,,0.00,VWS V13.01,2013-01-04 15:44:00,
2013-01-04 09:49:00,29.1,-12.8,28.91,ENE,67,0.0,0.0,15,0.00,,,0.00,VWS V13.01,2013-01-04 15:49:00,
2013-01-04 09:54:00,29.3,-12.6,28.91,East,87,0.0,0.0,15,0.00,,,0.00,VWS V13.01,2013-01-04 15:54:00,
2013-01-04 09:59:00,30.9,-11.3,28.91,ENE,65,0.0,0.0,15,0.00,,,0.00,VWS V13.01,2013-01-04 15:59:00,
2013-01-04 10:04:00,29.3,-12.6,28.91,NNE,23,3.6,5.8,15,0.00,,,0.00,VWS V13.01,2013-01-04 16:04:00,
2013-01-04 10:09:00,30.6,-11.6,28.91,ESE,119,0.0,0.0,15,0.00,,,0.00,VWS V13.01,2013-01-04 16:09:00,
2013-01-04 10:14:00,30.9,-11.3,28.91,East,82,0.0,0.0,15,0.00,,,0.00,VWS V13.01,2013-01-04 16:14:00,
2013-01-04 10:19:00,33.6,-9.1,28.91,ENE,59,0.0,3.6,15,0.00,,,0.00,VWS V13.01,2013-01-04 16:19:00,
2013-01-04 10:24:00,32.5,-10.0,28.91,ESE,110,0.0,0.0,15,0.00,,,0.00,VWS V13.01,2013-01-04 16:24:00,
2013-01-04 10:29:00,33.6,-9.1,28.91,NE,50,0.0,4.0,15,0.00,,,0.00,VWS V13.01,2013-01-04 16:29:00,
2013-01-04 10:34:00,34.5,-8.4,28.91,NE,41,0.0,0.0,15,0.00,,,0.00,VWS V13.01,2013-01-04 16:34:00,
2013-01-04 10:39:00,36.5,-8.2,28.94,North,10,3.1,3.1,14,0.00,,,0.00,VWS V13.01,2013-01-04 16:39:00,
2013-01-04 10:44:00,35.8,-8.7,28.94,ENE,69,4.5,4.5,14,0.00,,,0.00,VWS V13.01,2013-01-04 16:44:00,
2013-01-04 10:49:00,36.7,-8.0,28.94,NNE,29,2.7,2.7,14,0.00,,,0.00,VWS V13.01,2013-01-04 16:49:00,
2013-01-04 10:54:00,36.5,-8.2,28.91,NNE,25,3.6,3.6,14,0.00,,,0.00,VWS V13.01,2013-01-04 16:54:00,
2013-01-04 10:59:00,35.8,-8.7,28.91,ENE,62,0.0,0.0,14,0.00,,,0.00,VWS V13.01,2013-01-04 16:59:00,
2013-01-04 11:04:00,35.4,-7.6,28.91,NNW,344,3.1,4.0,15,0.00,,,0.00,VWS V13.01,2013-01-04 17:04:00,
2013-01-04 11:09:00,36.5,-8.2,28.94,NNW,327,3.1,3.1,14,0.00,,,0.00,VWS V13.01,2013-01-04 17:09:00,
2013-01-04 11:14:00,34.5,-8.4,28.94,East,94,3.1,5.8,15,0.00,,,0.00,VWS V13.01,2013-01-04 17:14:00,
2013-01-04 11:19:00,36.3,-8.3,28.94,ENE,61,3.1,5.4,14,0.00,,,0.00,VWS V13.01,2013-01-04 17:19:00,
2013-01-04 11:24:00,35.4,-7.6,28.94,ENE,63,0.0,0.0,15,0.00,,,0.00,VWS V13.01,2013-01-04 17:24:00,
2013-01-04 11:29:00,36.7,-8.0,28.94,ENE,71,0.0,3.1,14,0.00,,,0.00,VWS V13.01,2013-01-04 17:29:00,
2013-01-04 11:34:00,37.2,-7.6,28.94,NW,319,2.2,3.1,14,0.00,,,0.00,VWS V13.01,2013-01-04 17:34:00,
2013-01-04 11:39:00,37.0,-7.7,28.94,NNE,27,0.0,0.0,14,0.00,,,0.00,VWS V13.01,2013-01-04 17:39:00,
2013-01-04 11:44:00,37.8,-7.2,28.94,East,80,0.0,2.7,14,0.00,,,0.00,VWS V13.01,2013-01-04 17:44:00,
2013-01-04 11:49:00,36.5,-8.2,28.94,North,9,0.0,0.0,14,0.00,,,0.00,VWS V13.01,2013-01-04 17:49:00,
2013-01-04 11:54:00,36.9,-7.9,28.94,NNW,333,4.0,4.0,14,0.00,,,0.00,VWS V13.01,2013-01-04 17:54:00,
2013-01-04 11:59:00,37.6,-7.3,28.94,NE,52,2.7,3.1,14,0.00,,,0.00,VWS V13.01,2013-01-04 17:59:00,
2013-01-04 12:04:00,38.7,-6.4,28.94,NE,34,0.0,0.0,14,0.00,,,0.00,VWS V13.01,2013-01-04 18:04:00,
2013-01-04 12:09:00,38.3,-6.7,28.94,ENE,75,0.0,2.7,14,0.00,,,0.00,VWS V13.01,2013-01-04 18:09:00,
2013-01-04 12:14:00,38.1,-6.9,28.94,NE,35,0.0,2.2,14,0.00,,,0.00,VWS V13.01,2013-01-04 18:14:00,
2013-01-04 12:19:00,37.9,-7.0,28.94,North,7,0.0,4.0,14,0.00,,,0.00,VWS V13.01,2013-01-04 18:19:00,
2013-01-04 12:24:00,37.4,-7.4,28.91,North,4,3.1,3.1,14,0.00,,,0.00,VWS V13.01,2013-01-04 18:24:00,
2013-01-04 12:29:00,37.0,-7.7,28.91,NNW,340,4.0,4.0,14,0.00,,,0.00,VWS V13.01,2013-01-04 18:29:00,
2013-01-04 12:34:00,37.2,-7.6,28.91,WNW,303,2.2,3.1,14,0.00,,,0.00,VWS V13.01,2013-01-04 18:34:00,
2013-01-04 12:39:00,37.6,-7.3,28.91,North,1,5.8,5.8,14,0.00,,,0.00,VWS V13.01,2013-01-04 18:39:00,
2013-01-04 12:44:00,37.4,-7.4,28.91,NW,310,3.6,4.9,14,0.00,,,0.00,VWS V13.01,2013-01-04 18:44:00,
2013-01-04 12:49:00,36.5,-8.2,28.91,WNW,303,4.9,5.4,14,0.00,,,0.00,VWS V13.01,2013-01-04 18:49:00,
2013-01-04 12:54:00,36.1,-8.4,28.91,NNW,338,3.6,4.9,14,0.00,,,0.00,VWS V13.01,2013-01-04 18:54:00,
2013-01-04 12:59:00,36.9,-7.9,28.91,North,357,4.0,4.0,14,0.00,,,0.00,VWS V13.01,2013-01-04 18:59:00,
2013-01-04 13:04:00,36.3,-8.3,28.91,NNE,31,4.0,5.4,14,0.00,,,0.00,VWS V13.01,2013-01-04 19:04:00,
2013-01-04 13:09:00,35.4,-7.6,28.91,NW,305,4.9,4.9,15,0.00,,,0.00,VWS V13.01,2013-01-04 19:09:00,
2013-01-04 13:14:00,34.7,-8.2,28.91,WNW,303,4.0,4.0,15,0.00,,,0.00,VWS V13.01,2013-01-04 19:14:00,
2013-01-04 13:19:00,35.1,-7.9,28.91,WNW,301,5.4,5.8,15,0.00,,,0.00,VWS V13.01,2013-01-04 19:19:00,
2013-01-04 13:24:00,34.0,-8.8,28.91,North,357,2.2,2.7,15,0.00,,,0.00,VWS V13.01,2013-01-04 19:24:00,
2013-01-04 13:29:00,33.6,-9.1,28.91,NNW,338,3.1,4.9,15,0.00,,,0.00,VWS V13.01,2013-01-04 19:29:00,
2013-01-04 13:34:00,34.2,-8.6,28.91,North,357,0.0,2.2,15,0.00,,,0.00,VWS V13.01,2013-01-04 19:34:00,
2013-01-04 13:39:00,32.2,-10.3,28.91,NNW,331,5.8,5.8,15,0.00,,,0.00,VWS V13.01,2013-01-04 19:39:00,
2013-01-04 13:44:00,31.6,-10.7,28.91,North,5,3.1,3.1,15,0.00,,,0.00,VWS V13.01,2013-01-04 19:44:00,
2013-01-04 13:49:00,31.1,-11.1,28.91,NW,321,5.8,5.8,15,0.00,,,0.00,VWS V13.01,2013-01-04 19:49:00,
2013-01-04 13:54:00,30.6,-11.6,28.91,North,9,2.7,4.0,15,0.00,,,0.00,VWS V13.01,2013-01-04 19:54:00,
2013-01-04 13:59:00,30.7,-11.4,28.91,NW,325,0.0,0.0,15,0.00,,,0.00,VWS V13.01,2013-01-04 19:59:00,
2013-01-04 14:04:00,29.8,-12.2,28.91,North,353,5.4,5.4,15,0.00,,,0.00,VWS V13.01,2013-01-04 20:04:00,
2013-01-04 14:09:00,29.7,-12.3,28.91,NNE,18,3.6,4.9,15,0.00,,,0.00,VWS V13.01,2013-01-04 20:09:00,
2013-01-04 14:14:00,29.5,-12.5,28.91,NW,316,4.0,6.3,15,0.00,,,0.00,VWS V13.01,2013-01-04 20:14:00,
2013-01-04 14:19:00,29.1,-12.8,28.91,NNW,342,4.0,4.5,15,0.00,,,0.00,VWS V13.01,2013-01-04 20:19:00,
2013-01-04 14:24:00,28.6,-13.2,28.91,North,353,3.6,6.3,15,0.00,,,0.00,VWS V13.01,2013-01-04 20:24:00,
2013-01-04 14:29:00,28.6,-13.2,28.91,NNE,27,3.1,5.4,15,0.00,,,0.00,VWS V13.01,2013-01-04 20:29:00,
2013-01-04 14:34:00,29.1,-12.8,28.91,NNW,333,0.0,0.0,15,0.00,,,0.00,VWS V13.01,2013-01-04 20:34:00,
2013-01-04 14:39:00,29.7,-12.3,28.91,NNW,340,5.4,5.4,15,0.00,,,0.00,VWS V13.01,2013-01-04 20:39:00,
2013-01-04 14:44:00,30.2,-11.9,28.91,ENE,63,3.6,3.6,15,0.00,,,0.00,VWS V13.01,2013-01-04 20:44:00,
2013-01-04 14:49:00,30.7,-11.4,28.91,NNE,12,2.2,2.2,15,0.00,,,0.00,VWS V13.01,2013-01-04 20:49:00,
2013-01-04 14:54:00,31.3,-11.0,28.94,North,4,4.0,4.0,15,0.00,,,0.00,VWS V13.01,2013-01-04 20:54:00,
2013-01-04 14:59:00,32.5,-10.0,28.94,NNW,334,0.0,3.1,15,0.00,,,0.00,VWS V13.01,2013-01-04 20:59:00,
2013-01-04 15:04:00,32.2,-10.3,28.94,NW,308,2.7,3.1,15,0.00,,,0.00,VWS V13.01,2013-01-04 21:04:00,
2013-01-04 15:09:00,33.4,-9.2,28.91,NNW,343,0.0,0.0,15,0.00,,,0.00,VWS V13.01,2013-01-04 21:09:00,
2013-01-04 15:14:00,33.8,-8.9,28.91,NNE,28,4.0,4.0,15,0.00,,,0.00,VWS V13.01,2013-01-04 21:14:00,
2013-01-04 15:19:00,33.3,-9.4,28.91,NNW,337,5.8,5.8,15,0.00,,,0.00,VWS V13.01,2013-01-04 21:19:00,
2013-01-04 15:24:00,32.9,-9.7,28.94,NNW,341,3.1,5.8,15,0.00,,,0.00,VWS V13.01,2013-01-04 21:24:00,
2013-01-04 15:29:00,32.0,-10.4,28.94,WNW,300,0.0,5.8,15,0.00,,,0.00,VWS V13.01,2013-01-04 21:29:00,
2013-01-04 15:34:00,31.6,-10.7,28.94,NNW,344,3.1,3.1,15,0.00,,,0.00,VWS V13.01,2013-01-04 21:34:00,
2013-01-04 15:39:00,30.4,-11.7,28.94,NNE,24,3.6,3.6,15,0.00,,,0.00,VWS V13.01,2013-01-04 21:39:00,
2013-01-04 15:44:00,29.8,-12.2,28.94,NW,325,3.1,3.1,15,0.00,,,0.00,VWS V13.01,2013-01-04 21:44:00,
2013-01-04 15:49:00,29.1,-12.8,28.94,NW,319,3.6,5.4,15,0.00,,,0.00,VWS V13.01,2013-01-04 21:49:00,
2013-01-04 15:54:00,27.0,-13.2,28.94,NW,325,2.7,2.7,16,0.00,,,0.00,VWS V13.01,2013-01-04 21:54:00,
2013-01-04 15:59:00,25.5,-14.4,28.94,NNW,340,2.7,2.7,16,0.00,,,0.00,VWS V13.01,2013-01-04 21:59:00,
2013-01-04 16:04:00,24.3,-14.3,28.94,NNW,338,0.0,0.0,17,0.00,,,0.00,VWS V13.01,2013-01-04 22:04:00,
2013-01-04 16:09:00,23.5,-14.9,28.94,NNW,328,2.7,2.7,17,0.00,,,0.00,VWS V13.01,2013-01-04 22:09:00,
2013-01-04 16:14:00,23.0,-15.3,28.94,NW,322,3.1,3.1,17,0.00,,,0.00,VWS V13.01,2013-01-04 22:14:00,
2013-01-04 16:19:00,22.8,-15.4,28.94,NNW,329,4.0,4.0,17,0.00,,,0.00,VWS V13.01,2013-01-04 22:19:00,
2013-01-04 16:24:00,22.6,-15.6,28.94,NNE,17,2.2,2.2,17,0.00,,,0.00,VWS V13.01,2013-01-04 22:24:00,
2013-01-04 16:29:00,21.9,-16.2,28.94,NW,316,0.0,0.0,17,0.00,,,0.00,VWS V13.01,2013-01-04 22:29:00,
2013-01-04 16:34:00,21.7,-16.4,28.94,NW,320,0.0,2.2,17,0.00,,,0.00,VWS V13.01,2013-01-04 22:34:00,
2013-01-04 16:39:00,21.4,-16.6,28.94,NNE,17,3.6,3.6,17,0.00,,,0.00,VWS V13.01,2013-01-04 22:39:00,
2013-01-04 16:44:00,21.4,-16.6,28.94,North,357,0.0,0.0,17,0.00,,,0.00,VWS V13.01,2013-01-04 22:44:00,
2013-01-04 16:49:00,20.8,-17.1,28.94,NNW,336,0.0,0.0,17,0.00,,,0.00,VWS V13.01,2013-01-04 22:49:00,
2013-01-04 16:54:00,20.5,-17.4,28.97,North,353,2.7,2.7,17,0.00,,,0.00,VWS V13.01,2013-01-04 22:54:00,
2013-01-04 16:59:00,20.3,-17.5,28.97,NNW,341,2.7,2.7,17,0.00,,,0.00,VWS V13.01,2013-01-04 22:59:00,
2013-01-04 17:04:00,20.3,-17.5,28.97,North,0,3.1,3.6,17,0.00,,,0.00,VWS V13.01,2013-01-04 23:04:00,
2013-01-04 17:09:00,19.9,-17.8,28.97,North,353,3.1,3.1,17,0.00,,,0.00,VWS V13.01,2013-01-04 23:09:00,
2013-01-04 17:14:00,19.9,-17.8,28.97,NNW,341,0.0,0.0,17,0.00,,,0.00,VWS V13.01,2013-01-04 23:14:00,
2013-01-04 17:19:00,19.4,-17.2,28.97,North,0,0.0,0.0,18,0.00,,,0.00,VWS V13.01,2013-01-04 23:19:00,
2013-01-04 17:24:00,19.2,-17.3,28.97,NNW,344,0.0,0.0,18,0.00,,,0.00,VWS V13.01,2013-01-04 23:24:00,
2013-01-04 17:29:00,19.2,-17.3,28.97,North,8,0.0,0.0,18,0.00,,,0.00,VWS V13.01,2013-01-04 23:29:00,
2013-01-04 17:34:00,18.7,-17.8,28.97,North,0,0.0,0.0,18,0.00,,,0.00,VWS V13.01,2013-01-04 23:34:00,
2013-01-04 17:39:00,18.3,-18.1,28.97,North,0,0.0,0.0,18,0.00,,,0.00,VWS V13.01,2013-01-04 23:39:00,
2013-01-04 17:44:00,18.0,-18.4,28.97,North,0,0.0,0.0,18,0.00,,,0.00,VWS V13.01,2013-01-04 23:44:00,
2013-01-04 17:49:00,17.8,-18.5,28.97,North,1,0.0,0.0,18,0.00,,,0.00,VWS V13.01,2013-01-04 23:49:00,
2013-01-04 17:54:00,17.1,-19.1,28.94,North,1,0.0,0.0,18,0.00,,,0.00,VWS V13.01,2013-01-04 23:54:00,
2013-01-04 17:59:00,16.7,-19.4,28.94,North,1,0.0,0.0,18,0.00,,,0.00,VWS V13.01,2013-01-04 23:59:00,
2013-01-04 18:04:00,16.3,-19.7,28.94,North,1,0.0,0.0,18,0.00,,,0.00,VWS V13.01,2013-01-05 00:04:00,
2013-01-04 18:09:00,15.6,-19.3,28.97,North,1,0.0,0.0,19,0.00,,,0.00,VWS V13.01,2013-01-05 00:09:00,
2013-01-04 18:14:00,15.1,-19.8,28.97,North,1,0.0,0.0,19,0.00,,,0.00,VWS V13.01,2013-01-05 00:14:00,
2013-01-04 18:19:00,14.9,-19.9,28.97,North,1,0.0,0.0,19,0.00,,,0.00,VWS V13.01,2013-01-05 00:19:00,
2013-01-04 18:24:00,15.3,-19.6,28.97,North,1,0.0,0.0,19,0.00,,,0.00,VWS V13.01,2013-01-05 00:24:00,
2013-01-04 18:29:00,15.1,-19.8,28.97,North,1,0.0,0.0,19,0.00,,,0.00,VWS V13.01,2013-01-05 00:29:00,
2013-01-04 18:34:00,14.9,-19.9,28.97,North,1,0.0,0.0,19,0.00,,,0.00,VWS V13.01,2013-01-05 00:34:00,
2013-01-04 18:39:00,14.5,-20.2,28.97,North,1,0.0,0.0,19,0.00,,,0.00,VWS V13.01,2013-01-05 00:39:00,
2013-01-04 18:44:00,14.9,-19.9,28.97,North,1,0.0,0.0,19,0.00,,,0.00,VWS V13.01,2013-01-05 00:44:00,
2013-01-04 18:49:00,14.5,-20.2,28.97,North,1,0.0,0.0,19,0.00,,,0.00,VWS V13.01,2013-01-05 00:49:00,
2013-01-04 18:54:00,14.4,-20.4,28.97,North,1,0.0,0.0,19,0.00,,,0.00,VWS V13.01,2013-01-05 00:54:00,
2013-01-04 18:59:00,14.5,-18.3,28.97,North,1,0.0,0.0,21,0.00,,,0.00,VWS V13.01,2013-01-05 00:59:00,
2013-01-04 19:04:00,14.5,-18.3,28.97,North,1,0.0,0.0,21,0.00,,,0.00,VWS V13.01,2013-01-05 01:04:00,
2013-01-04 19:09:00,14.5,-18.3,28.97,North,0,0.0,0.0,21,0.00,,,0.00,VWS V13.01,2013-01-05 01:09:00,
2013-01-04 19:14:00,14.9,-15.4,28.97,North,357,0.0,0.0,24,0.00,,,0.00,VWS V13.01,2013-01-05 01:14:00,
2013-01-04 19:19:00,14.7,-15.5,28.97,North,357,0.0,0.0,24,0.00,,,0.00,VWS V13.01,2013-01-05 01:19:00,
2013-01-04 19:24:00,14.7,-15.5,28.94,North,357,0.0,0.0,24,0.00,,,0.00,VWS V13.01,2013-01-05 01:24:00,
2013-01-04 19:29:00,14.9,-13.8,28.94,North,357,0.0,0.0,26,0.00,,,0.00,VWS V13.01,2013-01-05 01:29:00,
2013-01-04 19:34:00,14.7,-11.8,28.94,North,357,0.0,0.0,29,0.00,,,0.00,VWS V13.01,2013-01-05 01:34:00,
2013-01-04 19:39:00,14.0,-13.8,28.94,North,357,0.0,0.0,27,0.00,,,0.00,VWS V13.01,2013-01-05 01:39:00,
2013-01-04 19:44:00,13.8,-14.0,28.94,North,357,0.0,0.0,27,0.00,,,0.00,VWS V13.01,2013-01-05 01:44:00,
2013-01-04 19:49:00,13.8,-16.3,28.94,North,357,0.0,0.0,24,0.00,,,0.00,VWS V13.01,2013-01-05 01:49:00,
2013-01-04 19:54:00,13.6,-16.4,28.94,North,357,0.0,0.0,24,0.00,,,0.00,VWS V13.01,2013-01-05 01:54:00,
2013-01-04 19:59:00,13.8,-16.3,28.94,North,357,0.0,0.0,24,0.00,,,0.00,VWS V13.01,2013-01-05 01:59:00,
2013-01-04 20:04:00,14.4,-12.1,28.94,North,357,0.0,0.0,29,0.00,,,0.00,VWS V13.01,2013-01-05 02:04:00,
2013-01-04 20:09:00,14.9,-8.4,28.94,North,357,0.0,0.0,34,0.00,,,0.00,VWS V13.01,2013-01-05 02:09:00,
2013-01-04 20:14:00,14.9,-8.4,28.94,North,357,0.0,0.0,34,0.00,,,0.00,VWS V13.01,2013-01-05 02:14:00,
2013-01-04 20:19:00,14.5,-8.1,28.94,North,357,0.0,0.0,35,0.00,,,0.00,VWS V13.01,2013-01-05 02:19:00,
2013-01-04 20:24:00,14.2,-8.4,28.94,North,357,0.0,0.0,35,0.00,,,0.00,VWS V13.01,2013-01-05 02:24:00,
2013-01-04 20:29:00,13.5,-9.1,28.94,North,357,0.0,0.0,35,0.00,,,0.00,VWS V13.01,2013-01-05 02:29:00,
2013-01-04 20:34:00,12.9,-9.6,28.94,North,357,0.0,0.0,35,0.00,,,0.00,VWS V13.01,2013-01-05 02:34:00,
2013-01-04 20:39:00,12.7,-9.7,28.94,North,357,0.0,0.0,35,0.00,,,0.00,VWS V13.01,2013-01-05 02:39:00,
2013-01-04 20:44:00,13.5,-9.1,28.94,NNW,333,0.0,0.0,35,0.00,,,0.00,VWS V13.01,2013-01-05 02:44:00,
2013-01-04 20:49:00,13.3,-9.2,28.94,NNW,327,0.0,0.0,35,0.00,,,0.00,VWS V13.01,2013-01-05 02:49:00,
2013-01-04 20:54:00,12.7,-9.7,28.97,NW,326,0.0,0.0,35,0.00,,,0.00,VWS V13.01,2013-01-05 02:54:00,
2013-01-04 20:59:00,12.7,-9.7,28.97,NW,319,0.0,0.0,35,0.00,,,0.00,VWS V13.01,2013-01-05 02:59:00,
2013-01-04 21:04:00,12.6,-9.9,28.97,NNW,348,2.2,2.2,35,0.00,,,0.00,VWS V13.01,2013-01-05 03:04:00,
2013-01-04 21:09:00,12.7,-9.7,28.97,North,353,0.0,2.2,35,0.00,,,0.00,VWS V13.01,2013-01-05 03:09:00,
2013-01-04 21:14:00,12.6,-9.9,28.97,North,4,0.0,0.0,35,0.00,,,0.00,VWS V13.01,2013-01-05 03:14:00,
2013-01-04 21:19:00,12.2,-10.2,28.97,North,353,0.0,0.0,35,0.00,,,0.00,VWS V13.01,2013-01-05 03:19:00,
2013-01-04 21:24:00,12.0,-10.4,28.97,NNE,13,2.2,2.2,35,0.00,,,0.00,VWS V13.01,2013-01-05 03:24:00,
2013-01-04 21:29:00,12.0,-10.4,28.97,North,2,0.0,0.0,35,0.00,,,0.00,VWS V13.01,2013-01-05 03:29:00,
2013-01-04 21:34:00,12.0,-10.4,28.97,North,2,0.0,0.0,35,0.00,,,0.00,VWS V13.01,2013-01-05 03:34:00,
2013-01-04 21:39:00,12.0,-10.4,28.94,NNW,345,0.0,0.0,35,0.00,,,0.00,VWS V13.01,2013-01-05 03:39:00,
2013-01-04 21:44:00,12.0,-10.4,28.94,North,357,0.0,0.0,35,0.00,,,0.00,VWS V13.01,2013-01-05 03:44:00,
2013-01-04 21:49:00,11.7,-10.7,28.94,North,357,0.0,0.0,35,0.00,,,0.00,VWS V13.01,2013-01-05 03:49:00,
2013-01-04 21:54:00,11.5,-10.9,28.94,North,357,0.0,0.0,35,0.00,,,0.00,VWS V13.01,2013-01-05 03:54:00,
2013-01-04 21:59:00,12.2,-10.2,28.94,NW,320,0.0,0.0,35,0.00,,,0.00,VWS V13.01,2013-01-05 03:59:00,
2013-01-04 22:04:00,12.9,-9.6,28.94,West,275,0.0,0.0,35,0.00,,,0.00,VWS V13.01,2013-01-05 04:04:00,
2013-01-04 22:09:00,12.7,-9.7,28.94,West,275,0.0,0.0,35,0.00,,,0.00,VWS V13.01,2013-01-05 04:09:00,
2013-01-04 22:14:00,12.6,-9.9,28.94,West,275,0.0,0.0,35,0.00,,,0.00,VWS V13.01,2013-01-05 04:14:00,
2013-01-04 22:19:00,12.7,-9.7,28.94,West,275,0.0,0.0,35,0.00,,,0.00,VWS V13.01,2013-01-05 04:19:00,
2013-01-04 22:24:00,12.7,-9.7,28.94,West,275,0.0,0.0,35,0.00,,,0.00,VWS V13.01,2013-01-05 04:24:00,
2013-01-04 22:29:00,12.2,-10.2,28.94,West,275,0.0,0.0,35,0.00,,,0.00,VWS V13.01,2013-01-05 04:29:00,
2013-01-04 22:34:00,12.2,-10.2,28.94,West,275,0.0,0.0,35,0.00,,,0.00,VWS V13.01,2013-01-05 04:34:00,
2013-01-04 22:39:00,12.7,-9.7,28.94,West,275,0.0,0.0,35,0.00,,,0.00,VWS V13.01,2013-01-05 04:39:00,
2013-01-04 22:44:00,12.7,-9.7,28.94,WSW,255,0.0,0.0,35,0.00,,,0.00,VWS V13.01,2013-01-05 04:44:00,
2013-01-04 22:49:00,12.2,-10.2,28.94,WSW,255,0.0,0.0,35,0.00,,,0.00,VWS V13.01,2013-01-05 04:49:00,
2013-01-04 22:54:00,12.0,-10.4,28.94,WSW,255,0.0,0.0,35,0.00,,,0.00,VWS V13.01,2013-01-05 04:54:00,
2013-01-04 22:59:00,12.2,-10.2,28.94,WSW,255,0.0,0.0,35,0.00,,,0.00,VWS V13.01,2013-01-05 04:59:00,
2013-01-04 23:00:00,12.6,-9.9,28.94,WSW,255,0.0,0.0,35,0.00,,,0.00,VWS V13.01,2013-01-05 05:00:00,
2013-01-04 23:05:00,12.6,-9.9,28.94,WSW,255,0.0,0.0,35,0.00,,,0.00,VWS V13.01,2013-01-05 05:05:00,
2013-01-04 23:10:00,12.2,-10.2,28.91,WSW,255,0.0,0.0,35,0.00,,,0.00,VWS V13.01,2013-01-05 05:10:00,
2013-01-04 23:15:00,12.2,-10.2,28.91,WSW,255,0.0,0.0,35,0.00,,,0.00,VWS V13.01,2013-01-05 05:15:00,
2013-01-04 23:20:00,12.0,-10.4,28.91,WSW,255,0.0,0.0,35,0.00,,,0.00,VWS V13.01,2013-01-05 05:20:00,
2013-01-04 23:25:00,11.3,-11.0,28.91,WSW,255,0.0,0.0,35,0.00,,,0.00,VWS V13.01,2013-01-05 05:25:00,
2013-01-04 23:30:00,11.3,-11.0,28.91,WSW,255,0.0,0.0,35,0.00,,,0.00,VWS V13.01,2013-01-05 05:30:00,
2013-01-04 23:35:00,11.1,-11.2,28.91,WSW,255,0.0,0.0,35,0.00,,,0.00,VWS V13.01,2013-01-05 05:35:00,
2013-01-04 23:40:00,10.2,-12.0,28.91,WSW,255,0.0,0.0,35,0.00,,,0.00,VWS V13.01,2013-01-05 05:40:00,
2013-01-04 23:45:00,9.5,-12.6,28.91,NW,306,0.0,0.0,35,0.00,,,0.00,VWS V13.01,2013-01-05 05:45:00,
2013-01-04 23:50:00,9.0,-13.1,28.91,NW,306,0.0,0.0,35,0.00,,,0.00,VWS V13.01,2013-01-05 05:50:00,
2013-01-04 23:55:00,8.1,-13.9,28.91,NW,306,0.0,0.0,35,0.00,,,0.00,VWS V13.01,2013-01-05 05:55:00,